sensor_id;sensor_type;location;lat;lon;timestamp;temperature;humidity
44695;DHT22;32845;59.422;17.930;2023-04-25T00:04:28;4.70;99.90
44695;DHT22;32845;59.422;17.930;2023-04-25T00:09:00;4.60;99.90
44695;DHT22;32845;59.422;17.930;2023-04-25T00:13:30;4.60;99.90
44695;DHT22;32845;59.422;17.930;2023-04-25T00:18:01;4.60;99.90
44695;DHT22;32845;59.422;17.930;2023-04-25T00:22:32;4.60;99.90
44695;DHT22;32845;59.422;17.930;2023-04-25T00:27:05;4.60;99.90
44695;DHT22;32845;59.422;17.930;2023-04-25T00:31:35;4.60;99.90
44695;DHT22;32845;59.422;17.930;2023-04-25T00:36:07;4.60;99.90
44695;DHT22;32845;59.422;17.930;2023-04-25T00:40:37;4.60;99.90
44695;DHT22;32845;59.422;17.930;2023-04-25T00:45:10;4.60;99.90
44695;DHT22;32845;59.422;17.930;2023-04-25T00:49:42;4.60;99.90
44695;DHT22;32845;59.422;17.930;2023-04-25T00:54:14;4.60;99.90
44695;DHT22;32845;59.422;17.930;2023-04-25T00:58:45;4.60;99.90
44695;DHT22;32845;59.422;17.930;2023-04-25T01:03:17;4.50;99.90
44695;DHT22;32845;59.422;17.930;2023-04-25T01:07:49;4.50;99.90
44695;DHT22;32845;59.422;17.930;2023-04-25T01:12:20;4.50;99.90
44695;DHT22;32845;59.422;17.930;2023-04-25T01:16:51;4.40;99.90
44695;DHT22;32845;59.422;17.930;2023-04-25T01:21:23;4.40;99.90
44695;DHT22;32845;59.422;17.930;2023-04-25T01:25:56;4.40;99.90
44695;DHT22;32845;59.422;17.930;2023-04-25T01:30:27;4.30;99.90
44695;DHT22;32845;59.422;17.930;2023-04-25T01:34:58;4.20;99.90
44695;DHT22;32845;59.422;17.930;2023-04-25T01:39:28;4.20;99.90
44695;DHT22;32845;59.422;17.930;2023-04-25T01:44:00;4.20;99.90
44695;DHT22;32845;59.422;17.930;2023-04-25T01:48:30;4.20;99.90
44695;DHT22;32845;59.422;17.930;2023-04-25T01:53:01;4.10;99.90
44695;DHT22;32845;59.422;17.930;2023-04-25T01:57:32;4.10;99.90
44695;DHT22;32845;59.422;17.930;2023-04-25T02:02:03;4.00;99.90
44695;DHT22;32845;59.422;17.930;2023-04-25T02:06:34;4.00;99.90
44695;DHT22;32845;59.422;17.930;2023-04-25T02:11:04;3.90;99.90
44695;DHT22;32845;59.422;17.930;2023-04-25T02:15:35;3.90;99.90
44695;DHT22;32845;59.422;17.930;2023-04-25T02:20:06;4.00;99.90
44695;DHT22;32845;59.422;17.930;2023-04-25T02:24:37;3.90;99.90
44695;DHT22;32845;59.422;17.930;2023-04-25T02:29:09;3.90;99.90
44695;DHT22;32845;59.422;17.930;2023-04-25T02:33:40;3.90;99.90
44695;DHT22;32845;59.422;17.930;2023-04-25T02:38:11;3.90;99.90
44695;DHT22;32845;59.422;17.930;2023-04-25T02:42:41;3.80;99.90
44695;DHT22;32845;59.422;17.930;2023-04-25T02:47:12;3.80;99.90
44695;DHT22;32845;59.422;17.930;2023-04-25T02:51:43;3.80;99.90
44695;DHT22;32845;59.422;17.930;2023-04-25T02:56:13;3.80;99.90
44695;DHT22;32845;59.422;17.930;2023-04-25T03:00:44;3.80;99.90
44695;DHT22;32845;59.422;17.930;2023-04-25T03:05:15;3.80;99.90
44695;DHT22;32845;59.422;17.930;2023-04-25T03:09:46;3.80;99.90
44695;DHT22;32845;59.422;17.930;2023-04-25T03:14:17;3.80;99.90
44695;DHT22;32845;59.422;17.930;2023-04-25T03:18:48;3.80;99.90
44695;DHT22;32845;59.422;17.930;2023-04-25T03:23:20;3.80;99.90
44695;DHT22;32845;59.422;17.930;2023-04-25T03:27:51;3.80;99.90
44695;DHT22;32845;59.422;17.930;2023-04-25T03:32:22;3.80;99.90
44695;DHT22;32845;59.422;17.930;2023-04-25T03:36:53;3.90;99.90
44695;DHT22;32845;59.422;17.930;2023-04-25T03:41:23;3.80;99.90
44695;DHT22;32845;59.422;17.930;2023-04-25T03:45:55;3.80;99.90
44695;DHT22;32845;59.422;17.930;2023-04-25T03:50:26;3.90;99.90
44695;DHT22;32845;59.422;17.930;2023-04-25T03:54:56;3.90;99.90
44695;DHT22;32845;59.422;17.930;2023-04-25T03:59:27;3.90;99.90
44695;DHT22;32845;59.422;17.930;2023-04-25T04:03:58;3.90;99.90
44695;DHT22;32845;59.422;17.930;2023-04-25T04:08:28;3.90;99.90
44695;DHT22;32845;59.422;17.930;2023-04-25T04:12:59;3.90;99.90
44695;DHT22;32845;59.422;17.930;2023-04-25T04:17:30;3.80;99.90
44695;DHT22;32845;59.422;17.930;2023-04-25T04:22:01;3.80;99.90
44695;DHT22;32845;59.422;17.930;2023-04-25T04:26:32;3.90;99.90
44695;DHT22;32845;59.422;17.930;2023-04-25T04:31:04;3.90;99.90
44695;DHT22;32845;59.422;17.930;2023-04-25T04:35:35;3.90;99.90
44695;DHT22;32845;59.422;17.930;2023-04-25T04:40:07;3.90;99.90
44695;DHT22;32845;59.422;17.930;2023-04-25T04:44:38;3.90;99.90
44695;DHT22;32845;59.422;17.930;2023-04-25T04:49:10;4.00;99.90
44695;DHT22;32845;59.422;17.930;2023-04-25T04:53:40;4.00;99.90
44695;DHT22;32845;59.422;17.930;2023-04-25T04:58:11;4.00;99.90
44695;DHT22;32845;59.422;17.930;2023-04-25T05:02:42;4.10;99.90
44695;DHT22;32845;59.422;17.930;2023-04-25T05:07:13;4.10;99.90
44695;DHT22;32845;59.422;17.930;2023-04-25T05:11:43;4.10;99.90
44695;DHT22;32845;59.422;17.930;2023-04-25T05:16:14;4.10;99.90
44695;DHT22;32845;59.422;17.930;2023-04-25T05:20:45;4.10;99.90
44695;DHT22;32845;59.422;17.930;2023-04-25T05:25:16;4.10;99.90
44695;DHT22;32845;59.422;17.930;2023-04-25T05:29:46;4.20;99.90
44695;DHT22;32845;59.422;17.930;2023-04-25T05:34:17;4.10;99.90
44695;DHT22;32845;59.422;17.930;2023-04-25T05:38:48;4.20;99.90
44695;DHT22;32845;59.422;17.930;2023-04-25T05:43:18;4.20;99.90
44695;DHT22;32845;59.422;17.930;2023-04-25T05:47:49;4.30;99.90
44695;DHT22;32845;59.422;17.930;2023-04-25T05:52:20;4.30;99.90
44695;DHT22;32845;59.422;17.930;2023-04-25T05:56:50;4.30;99.90
44695;DHT22;32845;59.422;17.930;2023-04-25T06:01:22;4.30;99.90
44695;DHT22;32845;59.422;17.930;2023-04-25T06:05:53;4.30;99.90
44695;DHT22;32845;59.422;17.930;2023-04-25T06:10:24;4.40;99.90
44695;DHT22;32845;59.422;17.930;2023-04-25T06:14:54;4.40;99.90
44695;DHT22;32845;59.422;17.930;2023-04-25T06:19:25;4.40;99.90
44695;DHT22;32845;59.422;17.930;2023-04-25T06:23:56;4.50;99.90
44695;DHT22;32845;59.422;17.930;2023-04-25T06:28:26;4.50;99.90
44695;DHT22;32845;59.422;17.930;2023-04-25T06:32:57;4.60;99.90
44695;DHT22;32845;59.422;17.930;2023-04-25T06:37:27;4.60;99.90
44695;DHT22;32845;59.422;17.930;2023-04-25T06:41:58;4.70;99.90
44695;DHT22;32845;59.422;17.930;2023-04-25T06:46:29;4.70;99.90
44695;DHT22;32845;59.422;17.930;2023-04-25T06:51:00;4.70;99.90
44695;DHT22;32845;59.422;17.930;2023-04-25T06:55:30;4.70;99.90
44695;DHT22;32845;59.422;17.930;2023-04-25T07:00:01;4.70;99.90
44695;DHT22;32845;59.422;17.930;2023-04-25T07:04:35;4.80;99.90
44695;DHT22;32845;59.422;17.930;2023-04-25T07:09:06;4.80;99.90
44695;DHT22;32845;59.422;17.930;2023-04-25T07:13:37;4.90;99.90
44695;DHT22;32845;59.422;17.930;2023-04-25T07:18:08;4.90;99.90
44695;DHT22;32845;59.422;17.930;2023-04-25T07:22:38;5.00;99.90
44695;DHT22;32845;59.422;17.930;2023-04-25T07:27:09;5.10;99.90
44695;DHT22;32845;59.422;17.930;2023-04-25T07:31:40;5.20;99.90
44695;DHT22;32845;59.422;17.930;2023-04-25T07:36:11;5.20;99.90
44695;DHT22;32845;59.422;17.930;2023-04-25T07:40:41;5.20;99.90
44695;DHT22;32845;59.422;17.930;2023-04-25T07:45:12;5.30;99.90
44695;DHT22;32845;59.422;17.930;2023-04-25T07:49:43;5.30;99.90
44695;DHT22;32845;59.422;17.930;2023-04-25T07:54:16;5.40;99.90
44695;DHT22;32845;59.422;17.930;2023-04-25T07:58:47;5.50;99.90
44695;DHT22;32845;59.422;17.930;2023-04-25T08:03:17;5.50;99.90
44695;DHT22;32845;59.422;17.930;2023-04-25T08:07:48;5.60;99.90
44695;DHT22;32845;59.422;17.930;2023-04-25T08:12:20;5.60;99.90
44695;DHT22;32845;59.422;17.930;2023-04-25T08:16:51;5.60;99.90
44695;DHT22;32845;59.422;17.930;2023-04-25T08:21:21;5.70;99.90
44695;DHT22;32845;59.422;17.930;2023-04-25T08:25:52;5.80;99.90
44695;DHT22;32845;59.422;17.930;2023-04-25T08:30:23;5.80;99.90
44695;DHT22;32845;59.422;17.930;2023-04-25T08:34:53;5.80;99.90
44695;DHT22;32845;59.422;17.930;2023-04-25T08:39:25;5.90;99.90
44695;DHT22;32845;59.422;17.930;2023-04-25T08:43:56;5.90;99.90
44695;DHT22;32845;59.422;17.930;2023-04-25T08:48:33;6.00;99.90
44695;DHT22;32845;59.422;17.930;2023-04-25T08:53:09;6.10;99.90
44695;DHT22;32845;59.422;17.930;2023-04-25T08:57:43;6.10;99.90
44695;DHT22;32845;59.422;17.930;2023-04-25T09:02:15;6.10;99.90
44695;DHT22;32845;59.422;17.930;2023-04-25T09:06:48;6.20;99.90
44695;DHT22;32845;59.422;17.930;2023-04-25T09:11:19;6.30;99.90
44695;DHT22;32845;59.422;17.930;2023-04-25T09:15:54;6.40;99.90
44695;DHT22;32845;59.422;17.930;2023-04-25T09:20:25;6.50;99.90
44695;DHT22;32845;59.422;17.930;2023-04-25T09:24:56;6.50;99.90
44695;DHT22;32845;59.422;17.930;2023-04-25T09:29:34;6.50;99.90
44695;DHT22;32845;59.422;17.930;2023-04-25T09:34:05;6.50;99.90
44695;DHT22;32845;59.422;17.930;2023-04-25T09:38:44;6.60;99.90
44695;DHT22;32845;59.422;17.930;2023-04-25T09:43:21;6.70;99.90
44695;DHT22;32845;59.422;17.930;2023-04-25T09:47:55;6.80;99.90
44695;DHT22;32845;59.422;17.930;2023-04-25T09:52:28;6.90;99.90
44695;DHT22;32845;59.422;17.930;2023-04-25T09:57:08;7.00;99.90
44695;DHT22;32845;59.422;17.930;2023-04-25T10:01:40;7.10;99.90
44695;DHT22;32845;59.422;17.930;2023-04-25T10:06:17;7.10;99.90
44695;DHT22;32845;59.422;17.930;2023-04-25T10:10:49;7.20;99.90
44695;DHT22;32845;59.422;17.930;2023-04-25T10:15:21;7.30;99.90
44695;DHT22;32845;59.422;17.930;2023-04-25T10:19:53;7.40;99.90
44695;DHT22;32845;59.422;17.930;2023-04-25T10:24:25;7.40;99.90
44695;DHT22;32845;59.422;17.930;2023-04-25T10:33:35;7.60;99.90
44695;DHT22;32845;59.422;17.930;2023-04-25T10:38:10;7.60;99.90
44695;DHT22;32845;59.422;17.930;2023-04-25T10:42:41;7.70;99.90
44695;DHT22;32845;59.422;17.930;2023-04-25T10:47:12;7.80;99.90
44695;DHT22;32845;59.422;17.930;2023-04-25T10:51:42;7.70;99.90
44695;DHT22;32845;59.422;17.930;2023-04-25T10:56:20;7.70;99.90
44695;DHT22;32845;59.422;17.930;2023-04-25T11:00:51;7.70;99.90
44695;DHT22;32845;59.422;17.930;2023-04-25T11:05:41;7.80;99.90
44695;DHT22;32845;59.422;17.930;2023-04-25T11:10:15;7.90;99.90
44695;DHT22;32845;59.422;17.930;2023-04-25T11:14:45;8.00;99.90
44695;DHT22;32845;59.422;17.930;2023-04-25T11:19:16;8.00;99.90
44695;DHT22;32845;59.422;17.930;2023-04-25T11:23:49;8.20;99.90
44695;DHT22;32845;59.422;17.930;2023-04-25T11:28:23;8.30;99.90
44695;DHT22;32845;59.422;17.930;2023-04-25T11:32:53;8.30;99.90
44695;DHT22;32845;59.422;17.930;2023-04-25T11:37:25;8.40;99.90
44695;DHT22;32845;59.422;17.930;2023-04-25T11:41:55;8.40;99.90
44695;DHT22;32845;59.422;17.930;2023-04-25T11:46:26;8.40;99.90
44695;DHT22;32845;59.422;17.930;2023-04-25T11:50:57;8.30;99.90
44695;DHT22;32845;59.422;17.930;2023-04-25T11:55:30;8.30;99.90
44695;DHT22;32845;59.422;17.930;2023-04-25T12:04:41;8.30;99.90
44695;DHT22;32845;59.422;17.930;2023-04-25T12:09:13;8.30;99.90
44695;DHT22;32845;59.422;17.930;2023-04-25T12:13:44;8.30;99.90
44695;DHT22;32845;59.422;17.930;2023-04-25T12:18:14;8.40;99.90
44695;DHT22;32845;59.422;17.930;2023-04-25T12:22:47;8.40;99.90
44695;DHT22;32845;59.422;17.930;2023-04-25T12:27:18;8.40;99.90
44695;DHT22;32845;59.422;17.930;2023-04-25T12:31:51;8.50;99.90
44695;DHT22;32845;59.422;17.930;2023-04-25T12:36:22;8.50;99.90
44695;DHT22;32845;59.422;17.930;2023-04-25T12:40:54;8.60;99.90
44695;DHT22;32845;59.422;17.930;2023-04-25T12:45:24;8.60;99.90
44695;DHT22;32845;59.422;17.930;2023-04-25T12:49:55;8.60;99.90
44695;DHT22;32845;59.422;17.930;2023-04-25T12:54:26;8.60;99.90
44695;DHT22;32845;59.422;17.930;2023-04-25T12:58:57;8.60;99.90
44695;DHT22;32845;59.422;17.930;2023-04-25T13:03:28;8.60;99.90
44695;DHT22;32845;59.422;17.930;2023-04-25T13:07:58;8.70;99.90
44695;DHT22;32845;59.422;17.930;2023-04-25T13:12:29;8.80;99.90
44695;DHT22;32845;59.422;17.930;2023-04-25T13:17:01;8.80;99.90
44695;DHT22;32845;59.422;17.930;2023-04-25T13:21:31;8.90;99.90
44695;DHT22;32845;59.422;17.930;2023-04-25T13:26:02;9.10;99.90
44695;DHT22;32845;59.422;17.930;2023-04-25T13:30:33;9.20;99.90
44695;DHT22;32845;59.422;17.930;2023-04-25T13:35:06;9.30;99.90
44695;DHT22;32845;59.422;17.930;2023-04-25T13:39:37;9.40;99.90
44695;DHT22;32845;59.422;17.930;2023-04-25T13:44:08;9.50;99.90
44695;DHT22;32845;59.422;17.930;2023-04-25T13:48:39;9.60;99.90
44695;DHT22;32845;59.422;17.930;2023-04-25T13:53:09;9.60;99.90
44695;DHT22;32845;59.422;17.930;2023-04-25T13:57:40;9.60;99.90
44695;DHT22;32845;59.422;17.930;2023-04-25T14:02:11;9.60;99.90
44695;DHT22;32845;59.422;17.930;2023-04-25T14:06:42;9.60;99.90
44695;DHT22;32845;59.422;17.930;2023-04-25T14:11:13;9.70;99.90
44695;DHT22;32845;59.422;17.930;2023-04-25T14:15:43;9.80;99.90
44695;DHT22;32845;59.422;17.930;2023-04-25T14:20:14;9.90;99.90
44695;DHT22;32845;59.422;17.930;2023-04-25T14:24:45;10.00;99.90
44695;DHT22;32845;59.422;17.930;2023-04-25T14:29:16;10.10;99.90
44695;DHT22;32845;59.422;17.930;2023-04-25T14:33:47;10.20;99.90
44695;DHT22;32845;59.422;17.930;2023-04-25T14:38:17;10.20;99.90
44695;DHT22;32845;59.422;17.930;2023-04-25T14:42:53;10.20;99.90
44695;DHT22;32845;59.422;17.930;2023-04-25T14:47:24;10.20;99.90
44695;DHT22;32845;59.422;17.930;2023-04-25T14:51:55;10.10;99.90
44695;DHT22;32845;59.422;17.930;2023-04-25T14:56:25;10.10;99.90
44695;DHT22;32845;59.422;17.930;2023-04-25T15:00:56;10.10;99.90
44695;DHT22;32845;59.422;17.930;2023-04-25T15:05:27;10.00;99.90
44695;DHT22;32845;59.422;17.930;2023-04-25T15:09:58;10.00;99.90
44695;DHT22;32845;59.422;17.930;2023-04-25T15:14:28;10.10;99.90
44695;DHT22;32845;59.422;17.930;2023-04-25T15:18:59;10.10;99.90
44695;DHT22;32845;59.422;17.930;2023-04-25T15:23:33;10.20;99.90
44695;DHT22;32845;59.422;17.930;2023-04-25T15:28:03;10.30;99.90
44695;DHT22;32845;59.422;17.930;2023-04-25T15:32:35;10.40;99.90
44695;DHT22;32845;59.422;17.930;2023-04-25T15:37:06;10.40;99.90
44695;DHT22;32845;59.422;17.930;2023-04-25T15:41:36;10.30;99.90
44695;DHT22;32845;59.422;17.930;2023-04-25T15:46:07;10.30;99.90
44695;DHT22;32845;59.422;17.930;2023-04-25T15:50:38;10.20;99.90
44695;DHT22;32845;59.422;17.930;2023-04-25T15:55:09;10.20;99.90
44695;DHT22;32845;59.422;17.930;2023-04-25T15:59:42;10.00;99.90
44695;DHT22;32845;59.422;17.930;2023-04-25T16:04:12;9.80;99.90
44695;DHT22;32845;59.422;17.930;2023-04-25T16:08:43;9.70;99.90
44695;DHT22;32845;59.422;17.930;2023-04-25T16:13:14;9.50;99.90
44695;DHT22;32845;59.422;17.930;2023-04-25T16:17:45;9.30;99.90
44695;DHT22;32845;59.422;17.930;2023-04-25T16:22:16;9.20;99.90
44695;DHT22;32845;59.422;17.930;2023-04-25T16:26:47;9.20;99.90
44695;DHT22;32845;59.422;17.930;2023-04-25T16:31:18;9.10;99.90
44695;DHT22;32845;59.422;17.930;2023-04-25T16:35:49;9.10;99.90
44695;DHT22;32845;59.422;17.930;2023-04-25T16:40:21;9.10;99.90
44695;DHT22;32845;59.422;17.930;2023-04-25T16:44:52;9.00;99.90
44695;DHT22;32845;59.422;17.930;2023-04-25T16:49:23;9.00;99.90
44695;DHT22;32845;59.422;17.930;2023-04-25T16:53:53;9.00;99.90
44695;DHT22;32845;59.422;17.930;2023-04-25T16:58:25;8.90;99.90
44695;DHT22;32845;59.422;17.930;2023-04-25T17:02:57;8.90;99.90
44695;DHT22;32845;59.422;17.930;2023-04-25T17:07:28;8.90;99.90
44695;DHT22;32845;59.422;17.930;2023-04-25T17:11:59;8.80;99.90
44695;DHT22;32845;59.422;17.930;2023-04-25T17:16:36;8.80;99.90
44695;DHT22;32845;59.422;17.930;2023-04-25T17:21:07;8.80;99.90
44695;DHT22;32845;59.422;17.930;2023-04-25T17:25:38;8.70;99.90
44695;DHT22;32845;59.422;17.930;2023-04-25T17:30:09;8.70;99.90
44695;DHT22;32845;59.422;17.930;2023-04-25T17:34:40;8.70;99.90
44695;DHT22;32845;59.422;17.930;2023-04-25T17:39:12;8.70;99.90
44695;DHT22;32845;59.422;17.930;2023-04-25T17:43:47;8.70;99.90
44695;DHT22;32845;59.422;17.930;2023-04-25T17:48:18;8.70;99.90
44695;DHT22;32845;59.422;17.930;2023-04-25T17:52:51;8.60;99.90
44695;DHT22;32845;59.422;17.930;2023-04-25T17:57:22;8.60;99.90
44695;DHT22;32845;59.422;17.930;2023-04-25T18:01:54;8.60;99.90
44695;DHT22;32845;59.422;17.930;2023-04-25T18:06:26;8.60;99.90
44695;DHT22;32845;59.422;17.930;2023-04-25T18:10:57;8.60;99.90
44695;DHT22;32845;59.422;17.930;2023-04-25T18:15:28;8.60;99.90
44695;DHT22;32845;59.422;17.930;2023-04-25T18:19:59;8.60;99.90
44695;DHT22;32845;59.422;17.930;2023-04-25T18:24:31;8.60;99.90
44695;DHT22;32845;59.422;17.930;2023-04-25T18:29:02;8.50;99.90
44695;DHT22;32845;59.422;17.930;2023-04-25T18:33:33;8.60;99.90
44695;DHT22;32845;59.422;17.930;2023-04-25T18:38:03;8.60;99.90
44695;DHT22;32845;59.422;17.930;2023-04-25T18:42:34;8.60;99.90
44695;DHT22;32845;59.422;17.930;2023-04-25T18:47:07;8.50;99.90
44695;DHT22;32845;59.422;17.930;2023-04-25T18:51:39;8.50;99.90
44695;DHT22;32845;59.422;17.930;2023-04-25T18:56:11;8.50;99.90
44695;DHT22;32845;59.422;17.930;2023-04-25T19:00:43;8.40;99.90
44695;DHT22;32845;59.422;17.930;2023-04-25T19:05:14;8.40;99.90
44695;DHT22;32845;59.422;17.930;2023-04-25T19:09:45;8.40;99.90
44695;DHT22;32845;59.422;17.930;2023-04-25T19:14:16;8.40;99.90
44695;DHT22;32845;59.422;17.930;2023-04-25T19:18:46;8.30;99.90
44695;DHT22;32845;59.422;17.930;2023-04-25T19:23:17;8.30;99.90
44695;DHT22;32845;59.422;17.930;2023-04-25T19:27:48;8.30;99.90
44695;DHT22;32845;59.422;17.930;2023-04-25T19:32:19;8.20;99.90
44695;DHT22;32845;59.422;17.930;2023-04-25T19:36:49;8.20;99.90
44695;DHT22;32845;59.422;17.930;2023-04-25T19:41:23;8.20;99.90
44695;DHT22;32845;59.422;17.930;2023-04-25T19:45:54;8.20;99.90
44695;DHT22;32845;59.422;17.930;2023-04-25T19:50:24;8.10;99.90
44695;DHT22;32845;59.422;17.930;2023-04-25T19:54:55;8.10;99.90
44695;DHT22;32845;59.422;17.930;2023-04-25T19:59:31;8.10;99.90
44695;DHT22;32845;59.422;17.930;2023-04-25T20:04:02;8.10;99.90
44695;DHT22;32845;59.422;17.930;2023-04-25T20:08:34;8.00;99.90
44695;DHT22;32845;59.422;17.930;2023-04-25T20:13:05;8.00;99.90
44695;DHT22;32845;59.422;17.930;2023-04-25T20:17:37;7.90;99.90
44695;DHT22;32845;59.422;17.930;2023-04-25T20:22:07;7.90;99.90
44695;DHT22;32845;59.422;17.930;2023-04-25T20:26:38;7.90;99.90
44695;DHT22;32845;59.422;17.930;2023-04-25T20:31:09;7.80;99.90
44695;DHT22;32845;59.422;17.930;2023-04-25T20:35:40;7.80;99.90
44695;DHT22;32845;59.422;17.930;2023-04-25T20:40:11;7.80;99.90
44695;DHT22;32845;59.422;17.930;2023-04-25T20:44:42;7.70;99.90
44695;DHT22;32845;59.422;17.930;2023-04-25T20:49:13;7.70;99.90
44695;DHT22;32845;59.422;17.930;2023-04-25T20:53:44;7.60;99.90
44695;DHT22;32845;59.422;17.930;2023-04-25T20:58:15;7.60;99.90
44695;DHT22;32845;59.422;17.930;2023-04-25T21:02:45;7.50;99.90
44695;DHT22;32845;59.422;17.930;2023-04-25T21:07:16;7.50;99.90
44695;DHT22;32845;59.422;17.930;2023-04-25T21:11:47;7.50;99.90
44695;DHT22;32845;59.422;17.930;2023-04-25T21:16:18;7.40;99.90
44695;DHT22;32845;59.422;17.930;2023-04-25T21:20:48;7.40;99.90
44695;DHT22;32845;59.422;17.930;2023-04-25T21:25:24;7.30;99.90
44695;DHT22;32845;59.422;17.930;2023-04-25T21:29:58;7.30;99.90
44695;DHT22;32845;59.422;17.930;2023-04-25T21:34:29;7.20;99.90
44695;DHT22;32845;59.422;17.930;2023-04-25T21:38:59;7.20;99.90
44695;DHT22;32845;59.422;17.930;2023-04-25T21:43:30;7.20;99.90
44695;DHT22;32845;59.422;17.930;2023-04-25T21:48:01;7.10;99.90
44695;DHT22;32845;59.422;17.930;2023-04-25T21:52:32;7.10;99.90
44695;DHT22;32845;59.422;17.930;2023-04-25T21:57:03;7.00;99.90
44695;DHT22;32845;59.422;17.930;2023-04-25T22:01:33;7.00;99.90
44695;DHT22;32845;59.422;17.930;2023-04-25T22:06:04;7.00;99.90
44695;DHT22;32845;59.422;17.930;2023-04-25T22:10:35;6.90;99.90
44695;DHT22;32845;59.422;17.930;2023-04-25T22:15:08;6.90;99.90
44695;DHT22;32845;59.422;17.930;2023-04-25T22:19:38;6.90;99.90
44695;DHT22;32845;59.422;17.930;2023-04-25T22:24:09;6.90;99.90
44695;DHT22;32845;59.422;17.930;2023-04-25T22:28:40;6.80;99.90
44695;DHT22;32845;59.422;17.930;2023-04-25T22:33:11;6.80;99.90
44695;DHT22;32845;59.422;17.930;2023-04-25T22:37:41;6.80;99.90
44695;DHT22;32845;59.422;17.930;2023-04-25T22:42:12;6.70;99.90
44695;DHT22;32845;59.422;17.930;2023-04-25T22:46:43;6.70;99.90
44695;DHT22;32845;59.422;17.930;2023-04-25T22:51:13;6.70;99.90
44695;DHT22;32845;59.422;17.930;2023-04-25T22:55:44;6.70;99.90
44695;DHT22;32845;59.422;17.930;2023-04-25T23:00:24;6.70;99.90
44695;DHT22;32845;59.422;17.930;2023-04-25T23:04:55;6.60;99.90
44695;DHT22;32845;59.422;17.930;2023-04-25T23:09:26;6.60;99.90
44695;DHT22;32845;59.422;17.930;2023-04-25T23:13:57;6.60;99.90
44695;DHT22;32845;59.422;17.930;2023-04-25T23:18:28;6.50;99.90
44695;DHT22;32845;59.422;17.930;2023-04-25T23:22:58;6.50;99.90
44695;DHT22;32845;59.422;17.930;2023-04-25T23:27:29;6.40;99.90
44695;DHT22;32845;59.422;17.930;2023-04-25T23:32:00;6.40;99.90
44695;DHT22;32845;59.422;17.930;2023-04-25T23:36:31;6.40;99.90
44695;DHT22;32845;59.422;17.930;2023-04-25T23:41:02;6.30;99.90
44695;DHT22;32845;59.422;17.930;2023-04-25T23:45:32;6.30;99.90
44695;DHT22;32845;59.422;17.930;2023-04-25T23:50:04;6.30;99.90
44695;DHT22;32845;59.422;17.930;2023-04-25T23:54:35;6.20;99.90
44695;DHT22;32845;59.422;17.930;2023-04-25T23:59:06;6.10;99.90
